sensor_id;sensor_type;location;lat;lon;timestamp;P1;durP1;ratioP1;P2;durP2;ratioP2
32321;SDS011;61553;48.994;8.940;2022-09-06T00:01:11;7.07;;;3.72;;
32321;SDS011;61553;48.994;8.940;2022-09-06T00:03:38;5.03;;;3.45;;
32321;SDS011;61553;48.994;8.940;2022-09-06T00:06:07;5.57;;;3.65;;
32321;SDS011;61553;48.994;8.940;2022-09-06T00:08:34;7.32;;;3.67;;
32321;SDS011;61553;48.994;8.940;2022-09-06T00:11:00;5.35;;;3.30;;
32321;SDS011;61553;48.994;8.940;2022-09-06T00:13:26;5.15;;;3.63;;
32321;SDS011;61553;48.994;8.940;2022-09-06T00:15:51;4.72;;;3.03;;
32321;SDS011;61553;48.994;8.940;2022-09-06T00:18:17;5.15;;;3.88;;
32321;SDS011;61553;48.994;8.940;2022-09-06T00:20:42;5.82;;;3.45;;
32321;SDS011;61553;48.994;8.940;2022-09-06T00:23:08;7.40;;;3.55;;
32321;SDS011;61553;48.994;8.940;2022-09-06T00:25:34;6.18;;;3.38;;
32321;SDS011;61553;48.994;8.940;2022-09-06T00:28:01;10.02;;;4.03;;
32321;SDS011;61553;48.994;8.940;2022-09-06T00:30:28;6.07;;;3.42;;
32321;SDS011;61553;48.994;8.940;2022-09-06T00:32:55;9.50;;;3.88;;
32321;SDS011;61553;48.994;8.940;2022-09-06T00:35:21;7.00;;;4.15;;
32321;SDS011;61553;48.994;8.940;2022-09-06T00:37:51;8.25;;;4.32;;
32321;SDS011;61553;48.994;8.940;2022-09-06T00:40:20;6.57;;;4.13;;
32321;SDS011;61553;48.994;8.940;2022-09-06T00:42:45;9.70;;;4.85;;
32321;SDS011;61553;48.994;8.940;2022-09-06T00:45:11;6.97;;;5.00;;
32321;SDS011;61553;48.994;8.940;2022-09-06T00:47:39;8.23;;;4.20;;
32321;SDS011;61553;48.994;8.940;2022-09-06T00:50:06;8.93;;;4.32;;
32321;SDS011;61553;48.994;8.940;2022-09-06T00:52:33;5.53;;;4.00;;
32321;SDS011;61553;48.994;8.940;2022-09-06T00:55:00;7.70;;;3.85;;
32321;SDS011;61553;48.994;8.940;2022-09-06T00:57:26;7.93;;;4.25;;
32321;SDS011;61553;48.994;8.940;2022-09-06T00:59:54;5.82;;;4.40;;
32321;SDS011;61553;48.994;8.940;2022-09-06T01:02:20;9.63;;;4.70;;
32321;SDS011;61553;48.994;8.940;2022-09-06T01:04:46;7.63;;;4.90;;
32321;SDS011;61553;48.994;8.940;2022-09-06T01:21:16;8.07;;;5.43;;
32321;SDS011;61553;48.994;8.940;2022-09-06T01:24:18;8.80;;;5.47;;
32321;SDS011;61553;48.994;8.940;2022-09-06T01:32:10;10.23;;;5.88;;
32321;SDS011;61553;48.994;8.940;2022-09-06T01:34:48;9.25;;;5.68;;
32321;SDS011;61553;48.994;8.940;2022-09-06T01:37:18;9.93;;;4.75;;
32321;SDS011;61553;48.994;8.940;2022-09-06T01:39:46;10.32;;;4.30;;
32321;SDS011;61553;48.994;8.940;2022-09-06T01:42:19;5.63;;;4.03;;
32321;SDS011;61553;48.994;8.940;2022-09-06T01:44:51;7.97;;;4.10;;
32321;SDS011;61553;48.994;8.940;2022-09-06T01:47:21;8.73;;;4.28;;
32321;SDS011;61553;48.994;8.940;2022-09-06T01:50:35;7.05;;;4.13;;
32321;SDS011;61553;48.994;8.940;2022-09-06T01:52:41;8.57;;;4.10;;
32321;SDS011;61553;48.994;8.940;2022-09-06T02:00:30;9.90;;;4.88;;
32321;SDS011;61553;48.994;8.940;2022-09-06T02:06:06;12.18;;;5.40;;
32321;SDS011;61553;48.994;8.940;2022-09-06T02:09:10;8.55;;;5.10;;
32321;SDS011;61553;48.994;8.940;2022-09-06T02:11:36;7.68;;;4.93;;
32321;SDS011;61553;48.994;8.940;2022-09-06T02:14:10;6.78;;;4.80;;
32321;SDS011;61553;48.994;8.940;2022-09-06T02:16:43;8.20;;;4.82;;
32321;SDS011;61553;48.994;8.940;2022-09-06T02:19:17;6.85;;;4.72;;
32321;SDS011;61553;48.994;8.940;2022-09-06T02:21:48;7.85;;;4.18;;
32321;SDS011;61553;48.994;8.940;2022-09-06T02:24:18;7.78;;;5.25;;
32321;SDS011;61553;48.994;8.940;2022-09-06T02:26:48;9.43;;;4.88;;
32321;SDS011;61553;48.994;8.940;2022-09-06T02:29:14;13.35;;;4.45;;
32321;SDS011;61553;48.994;8.940;2022-09-06T02:34:46;8.00;;;4.43;;
32321;SDS011;61553;48.994;8.940;2022-09-06T02:37:15;9.98;;;4.75;;
32321;SDS011;61553;48.994;8.940;2022-09-06T02:39:41;6.47;;;3.95;;
32321;SDS011;61553;48.994;8.940;2022-09-06T02:42:08;6.13;;;4.10;;
32321;SDS011;61553;48.994;8.940;2022-09-06T02:44:35;6.40;;;4.00;;
32321;SDS011;61553;48.994;8.940;2022-09-06T02:47:01;5.65;;;3.97;;
32321;SDS011;61553;48.994;8.940;2022-09-06T02:49:27;6.00;;;3.50;;
32321;SDS011;61553;48.994;8.940;2022-09-06T02:51:54;10.43;;;5.00;;
32321;SDS011;61553;48.994;8.940;2022-09-06T02:54:20;10.50;;;4.93;;
32321;SDS011;61553;48.994;8.940;2022-09-06T02:56:45;9.30;;;5.13;;
32321;SDS011;61553;48.994;8.940;2022-09-06T02:59:11;8.23;;;5.00;;
32321;SDS011;61553;48.994;8.940;2022-09-06T03:01:37;7.68;;;4.57;;
32321;SDS011;61553;48.994;8.940;2022-09-06T03:04:02;7.20;;;4.50;;
32321;SDS011;61553;48.994;8.940;2022-09-06T03:06:28;8.00;;;4.68;;
32321;SDS011;61553;48.994;8.940;2022-09-06T03:08:54;8.80;;;5.47;;
32321;SDS011;61553;48.994;8.940;2022-09-06T03:11:20;7.03;;;5.47;;
32321;SDS011;61553;48.994;8.940;2022-09-06T03:13:46;9.43;;;6.18;;
32321;SDS011;61553;48.994;8.940;2022-09-06T03:16:11;9.27;;;5.80;;
32321;SDS011;61553;48.994;8.940;2022-09-06T03:18:37;7.80;;;5.55;;
32321;SDS011;61553;48.994;8.940;2022-09-06T03:21:03;8.02;;;5.15;;
32321;SDS011;61553;48.994;8.940;2022-09-06T03:23:28;9.90;;;5.78;;
32321;SDS011;61553;48.994;8.940;2022-09-06T03:25:54;9.40;;;5.47;;
32321;SDS011;61553;48.994;8.940;2022-09-06T03:28:21;9.20;;;5.22;;
32321;SDS011;61553;48.994;8.940;2022-09-06T03:30:47;10.80;;;6.47;;
32321;SDS011;61553;48.994;8.940;2022-09-06T03:33:14;11.50;;;6.10;;
32321;SDS011;61553;48.994;8.940;2022-09-06T03:35:46;8.98;;;5.82;;
32321;SDS011;61553;48.994;8.940;2022-09-06T03:38:13;10.13;;;6.32;;
32321;SDS011;61553;48.994;8.940;2022-09-06T03:40:39;7.82;;;5.80;;
32321;SDS011;61553;48.994;8.940;2022-09-06T03:43:04;9.02;;;6.43;;
32321;SDS011;61553;48.994;8.940;2022-09-06T03:45:30;11.45;;;6.80;;
32321;SDS011;61553;48.994;8.940;2022-09-06T03:47:56;11.93;;;6.88;;
32321;SDS011;61553;48.994;8.940;2022-09-06T03:50:21;8.07;;;6.18;;
32321;SDS011;61553;48.994;8.940;2022-09-06T03:52:47;10.30;;;6.53;;
32321;SDS011;61553;48.994;8.940;2022-09-06T03:55:12;9.10;;;7.60;;
32321;SDS011;61553;48.994;8.940;2022-09-06T03:57:38;9.25;;;7.10;;
32321;SDS011;61553;48.994;8.940;2022-09-06T04:00:04;10.38;;;6.30;;
32321;SDS011;61553;48.994;8.940;2022-09-06T04:02:30;9.32;;;7.22;;
32321;SDS011;61553;48.994;8.940;2022-09-06T04:04:55;8.65;;;6.07;;
32321;SDS011;61553;48.994;8.940;2022-09-06T04:07:21;8.05;;;6.40;;
32321;SDS011;61553;48.994;8.940;2022-09-06T04:09:47;8.55;;;6.60;;
32321;SDS011;61553;48.994;8.940;2022-09-06T04:12:13;11.70;;;7.35;;
32321;SDS011;61553;48.994;8.940;2022-09-06T04:14:39;9.23;;;7.18;;
32321;SDS011;61553;48.994;8.940;2022-09-06T04:17:04;10.52;;;6.93;;
32321;SDS011;61553;48.994;8.940;2022-09-06T04:19:30;9.13;;;7.07;;
32321;SDS011;61553;48.994;8.940;2022-09-06T04:21:55;12.13;;;6.88;;
32321;SDS011;61553;48.994;8.940;2022-09-06T04:24:21;7.28;;;6.07;;
32321;SDS011;61553;48.994;8.940;2022-09-06T04:26:47;8.10;;;5.93;;
32321;SDS011;61553;48.994;8.940;2022-09-06T04:29:12;13.80;;;7.20;;
32321;SDS011;61553;48.994;8.940;2022-09-06T04:31:38;12.60;;;7.28;;
32321;SDS011;61553;48.994;8.940;2022-09-06T04:34:03;10.88;;;7.63;;
32321;SDS011;61553;48.994;8.940;2022-09-06T04:36:29;14.27;;;9.00;;
32321;SDS011;61553;48.994;8.940;2022-09-06T04:38:55;11.70;;;7.80;;
32321;SDS011;61553;48.994;8.940;2022-09-06T04:41:20;9.93;;;7.55;;
32321;SDS011;61553;48.994;8.940;2022-09-06T04:43:47;11.48;;;7.65;;
32321;SDS011;61553;48.994;8.940;2022-09-06T04:46:20;10.07;;;7.95;;
32321;SDS011;61553;48.994;8.940;2022-09-06T04:48:49;13.15;;;7.93;;
32321;SDS011;61553;48.994;8.940;2022-09-06T04:51:15;11.95;;;8.57;;
32321;SDS011;61553;48.994;8.940;2022-09-06T04:53:41;12.07;;;7.93;;
32321;SDS011;61553;48.994;8.940;2022-09-06T04:56:09;11.32;;;8.55;;
32321;SDS011;61553;48.994;8.940;2022-09-06T05:01:05;11.00;;;7.85;;
32321;SDS011;61553;48.994;8.940;2022-09-06T05:03:31;12.18;;;9.15;;
32321;SDS011;61553;48.994;8.940;2022-09-06T05:06:03;14.10;;;9.57;;
32321;SDS011;61553;48.994;8.940;2022-09-06T05:08:30;11.98;;;8.18;;
32321;SDS011;61553;48.994;8.940;2022-09-06T05:10:56;12.18;;;8.80;;
32321;SDS011;61553;48.994;8.940;2022-09-06T05:13:22;11.93;;;9.10;;
32321;SDS011;61553;48.994;8.940;2022-09-06T05:15:47;15.75;;;8.48;;
32321;SDS011;61553;48.994;8.940;2022-09-06T05:18:13;12.90;;;9.30;;
32321;SDS011;61553;48.994;8.940;2022-09-06T05:20:38;10.52;;;8.10;;
32321;SDS011;61553;48.994;8.940;2022-09-06T05:23:04;12.95;;;8.25;;
32321;SDS011;61553;48.994;8.940;2022-09-06T05:25:30;11.57;;;8.73;;
32321;SDS011;61553;48.994;8.940;2022-09-06T05:27:55;12.13;;;8.88;;
32321;SDS011;61553;48.994;8.940;2022-09-06T05:30:21;13.40;;;8.90;;
32321;SDS011;61553;48.994;8.940;2022-09-06T05:32:47;11.95;;;8.32;;
32321;SDS011;61553;48.994;8.940;2022-09-06T05:35:12;11.90;;;8.27;;
32321;SDS011;61553;48.994;8.940;2022-09-06T05:37:38;12.63;;;8.18;;
32321;SDS011;61553;48.994;8.940;2022-09-06T05:40:04;10.88;;;8.50;;
32321;SDS011;61553;48.994;8.940;2022-09-06T05:42:30;13.25;;;9.60;;
32321;SDS011;61553;48.994;8.940;2022-09-06T05:44:55;12.65;;;8.50;;
32321;SDS011;61553;48.994;8.940;2022-09-06T05:47:21;12.02;;;9.18;;
32321;SDS011;61553;48.994;8.940;2022-09-06T05:49:47;15.40;;;9.65;;
32321;SDS011;61553;48.994;8.940;2022-09-06T05:52:12;14.80;;;9.82;;
32321;SDS011;61553;48.994;8.940;2022-09-06T05:54:38;11.00;;;8.82;;
32321;SDS011;61553;48.994;8.940;2022-09-06T05:57:03;12.65;;;9.13;;
32321;SDS011;61553;48.994;8.940;2022-09-06T05:59:29;14.70;;;9.43;;
32321;SDS011;61553;48.994;8.940;2022-09-06T06:01:55;11.88;;;8.32;;
32321;SDS011;61553;48.994;8.940;2022-09-06T06:04:20;11.32;;;8.02;;
32321;SDS011;61553;48.994;8.940;2022-09-06T06:06:46;12.77;;;8.57;;
32321;SDS011;61553;48.994;8.940;2022-09-06T06:09:13;10.73;;;7.50;;
32321;SDS011;61553;48.994;8.940;2022-09-06T06:11:39;14.75;;;8.65;;
32321;SDS011;61553;48.994;8.940;2022-09-06T06:14:06;12.18;;;8.20;;
32321;SDS011;61553;48.994;8.940;2022-09-06T06:16:31;11.50;;;8.02;;
32321;SDS011;61553;48.994;8.940;2022-09-06T06:18:57;10.13;;;8.20;;
32321;SDS011;61553;48.994;8.940;2022-09-06T06:21:24;11.68;;;7.22;;
32321;SDS011;61553;48.994;8.940;2022-09-06T06:23:54;11.45;;;7.53;;
32321;SDS011;61553;48.994;8.940;2022-09-06T06:26:22;11.07;;;7.13;;
32321;SDS011;61553;48.994;8.940;2022-09-06T06:28:48;9.70;;;7.22;;
32321;SDS011;61553;48.994;8.940;2022-09-06T06:31:14;9.35;;;7.00;;
32321;SDS011;61553;48.994;8.940;2022-09-06T06:33:40;11.45;;;6.88;;
32321;SDS011;61553;48.994;8.940;2022-09-06T06:36:16;10.65;;;7.00;;
32321;SDS011;61553;48.994;8.940;2022-09-06T06:38:47;8.43;;;6.32;;
32321;SDS011;61553;48.994;8.940;2022-09-06T06:41:16;12.05;;;6.80;;
32321;SDS011;61553;48.994;8.940;2022-09-06T06:43:43;13.73;;;6.82;;
32321;SDS011;61553;48.994;8.940;2022-09-06T06:46:13;9.68;;;6.72;;
32321;SDS011;61553;48.994;8.940;2022-09-06T06:48:41;10.45;;;6.72;;
32321;SDS011;61553;48.994;8.940;2022-09-06T06:51:08;11.20;;;6.32;;
32321;SDS011;61553;48.994;8.940;2022-09-06T06:53:34;10.07;;;6.65;;
32321;SDS011;61553;48.994;8.940;2022-09-06T06:56:00;9.80;;;6.57;;
32321;SDS011;61553;48.994;8.940;2022-09-06T06:58:36;9.68;;;6.97;;
32321;SDS011;61553;48.994;8.940;2022-09-06T07:01:02;10.02;;;6.53;;
32321;SDS011;61553;48.994;8.940;2022-09-06T07:03:27;8.95;;;6.07;;
32321;SDS011;61553;48.994;8.940;2022-09-06T07:05:53;10.25;;;5.97;;
32321;SDS011;61553;48.994;8.940;2022-09-06T07:08:19;7.72;;;5.53;;
32321;SDS011;61553;48.994;8.940;2022-09-06T07:10:44;8.73;;;5.57;;
32321;SDS011;61553;48.994;8.940;2022-09-06T07:13:10;7.40;;;4.70;;
32321;SDS011;61553;48.994;8.940;2022-09-06T07:15:36;9.23;;;5.45;;
32321;SDS011;61553;48.994;8.940;2022-09-06T07:18:02;7.68;;;4.32;;
32321;SDS011;61553;48.994;8.940;2022-09-06T07:20:27;11.23;;;4.68;;
32321;SDS011;61553;48.994;8.940;2022-09-06T07:22:57;11.10;;;4.88;;
32321;SDS011;61553;48.994;8.940;2022-09-06T07:25:27;8.65;;;4.63;;
32321;SDS011;61553;48.994;8.940;2022-09-06T07:27:59;8.30;;;4.55;;
32321;SDS011;61553;48.994;8.940;2022-09-06T07:30:31;8.48;;;4.28;;
32321;SDS011;61553;48.994;8.940;2022-09-06T07:33:01;9.90;;;4.50;;
32321;SDS011;61553;48.994;8.940;2022-09-06T07:35:29;11.98;;;4.40;;
32321;SDS011;61553;48.994;8.940;2022-09-06T07:37:56;8.48;;;4.40;;
32321;SDS011;61553;48.994;8.940;2022-09-06T07:40:23;8.32;;;4.32;;
32321;SDS011;61553;48.994;8.940;2022-09-06T07:42:49;5.53;;;4.18;;
32321;SDS011;61553;48.994;8.940;2022-09-06T07:45:15;7.38;;;4.25;;
32321;SDS011;61553;48.994;8.940;2022-09-06T07:47:41;7.55;;;4.30;;
32321;SDS011;61553;48.994;8.940;2022-09-06T07:50:07;8.20;;;3.85;;
32321;SDS011;61553;48.994;8.940;2022-09-06T07:52:33;7.07;;;4.30;;
32321;SDS011;61553;48.994;8.940;2022-09-06T07:54:58;9.93;;;3.75;;
32321;SDS011;61553;48.994;8.940;2022-09-06T07:57:24;7.85;;;3.72;;
32321;SDS011;61553;48.994;8.940;2022-09-06T07:59:50;7.10;;;4.18;;
32321;SDS011;61553;48.994;8.940;2022-09-06T08:02:16;7.53;;;4.18;;
32321;SDS011;61553;48.994;8.940;2022-09-06T08:04:42;7.22;;;3.70;;
32321;SDS011;61553;48.994;8.940;2022-09-06T08:07:08;5.63;;;3.50;;
32321;SDS011;61553;48.994;8.940;2022-09-06T08:09:33;6.38;;;3.58;;
32321;SDS011;61553;48.994;8.940;2022-09-06T08:11:59;8.18;;;3.28;;
32321;SDS011;61553;48.994;8.940;2022-09-06T08:14:30;8.43;;;4.15;;
32321;SDS011;61553;48.994;8.940;2022-09-06T08:16:56;7.88;;;3.15;;
32321;SDS011;61553;48.994;8.940;2022-09-06T08:19:22;9.55;;;3.83;;
32321;SDS011;61553;48.994;8.940;2022-09-06T08:21:47;8.07;;;3.50;;
32321;SDS011;61553;48.994;8.940;2022-09-06T08:24:13;5.75;;;3.20;;
32321;SDS011;61553;48.994;8.940;2022-09-06T08:26:39;8.45;;;4.40;;
32321;SDS011;61553;48.994;8.940;2022-09-06T08:29:09;9.23;;;3.70;;
32321;SDS011;61553;48.994;8.940;2022-09-06T08:31:36;5.53;;;3.70;;
32321;SDS011;61553;48.994;8.940;2022-09-06T08:34:03;7.82;;;3.42;;
32321;SDS011;61553;48.994;8.940;2022-09-06T08:36:29;6.43;;;3.30;;
32321;SDS011;61553;48.994;8.940;2022-09-06T08:38:56;10.82;;;3.45;;
32321;SDS011;61553;48.994;8.940;2022-09-06T08:41:29;5.57;;;3.27;;
32321;SDS011;61553;48.994;8.940;2022-09-06T08:44:02;5.65;;;3.20;;
32321;SDS011;61553;48.994;8.940;2022-09-06T08:46:36;7.10;;;3.58;;
32321;SDS011;61553;48.994;8.940;2022-09-06T08:49:04;5.32;;;3.03;;
32321;SDS011;61553;48.994;8.940;2022-09-06T08:54:37;6.10;;;3.72;;
32321;SDS011;61553;48.994;8.940;2022-09-06T08:59:48;9.45;;;4.22;;
32321;SDS011;61553;48.994;8.940;2022-09-06T09:02:21;7.72;;;3.45;;
32321;SDS011;61553;48.994;8.940;2022-09-06T09:04:57;6.72;;;3.75;;
32321;SDS011;61553;48.994;8.940;2022-09-06T09:07:37;6.75;;;3.40;;
32321;SDS011;61553;48.994;8.940;2022-09-06T09:10:11;7.57;;;3.55;;
32321;SDS011;61553;48.994;8.940;2022-09-06T09:12:51;5.78;;;3.13;;
32321;SDS011;61553;48.994;8.940;2022-09-06T09:15:17;6.47;;;3.20;;
32321;SDS011;61553;48.994;8.940;2022-09-06T09:17:45;6.35;;;3.53;;
32321;SDS011;61553;48.994;8.940;2022-09-06T09:20:14;5.90;;;2.90;;
32321;SDS011;61553;48.994;8.940;2022-09-06T09:22:40;11.07;;;3.90;;
32321;SDS011;61553;48.994;8.940;2022-09-06T09:25:07;5.30;;;3.08;;
32321;SDS011;61553;48.994;8.940;2022-09-06T09:27:36;6.35;;;3.65;;
32321;SDS011;61553;48.994;8.940;2022-09-06T09:30:04;6.03;;;3.90;;
32321;SDS011;61553;48.994;8.940;2022-09-06T09:32:38;8.80;;;4.00;;
32321;SDS011;61553;48.994;8.940;2022-09-06T09:37:45;8.25;;;3.50;;
32321;SDS011;61553;48.994;8.940;2022-09-06T09:40:33;6.40;;;3.50;;
32321;SDS011;61553;48.994;8.940;2022-09-06T09:45:45;6.63;;;3.63;;
32321;SDS011;61553;48.994;8.940;2022-09-06T09:48:24;9.38;;;3.70;;
32321;SDS011;61553;48.994;8.940;2022-09-06T09:50:51;5.82;;;3.00;;
32321;SDS011;61553;48.994;8.940;2022-09-06T09:53:19;7.32;;;3.25;;
32321;SDS011;61553;48.994;8.940;2022-09-06T09:55:46;7.75;;;3.15;;
32321;SDS011;61553;48.994;8.940;2022-09-06T09:58:18;8.02;;;3.22;;
32321;SDS011;61553;48.994;8.940;2022-09-06T10:01:28;7.57;;;2.67;;
32321;SDS011;61553;48.994;8.940;2022-09-06T10:03:49;9.25;;;2.90;;
32321;SDS011;61553;48.994;8.940;2022-09-06T10:06:23;6.07;;;2.45;;
32321;SDS011;61553;48.994;8.940;2022-09-06T10:08:50;5.43;;;2.63;;
32321;SDS011;61553;48.994;8.940;2022-09-06T10:11:35;5.32;;;2.72;;
32321;SDS011;61553;48.994;8.940;2022-09-06T10:14:25;5.75;;;2.60;;
32321;SDS011;61553;48.994;8.940;2022-09-06T10:16:54;6.18;;;2.80;;
32321;SDS011;61553;48.994;8.940;2022-09-06T10:19:21;6.15;;;2.70;;
32321;SDS011;61553;48.994;8.940;2022-09-06T10:21:50;9.10;;;2.78;;
32321;SDS011;61553;48.994;8.940;2022-09-06T10:24:28;8.63;;;3.10;;
32321;SDS011;61553;48.994;8.940;2022-09-06T10:27:11;5.85;;;3.00;;
32321;SDS011;61553;48.994;8.940;2022-09-06T10:29:49;5.07;;;2.70;;
32321;SDS011;61553;48.994;8.940;2022-09-06T10:43:47;6.93;;;2.88;;
32321;SDS011;61553;48.994;8.940;2022-09-06T10:46:25;7.93;;;2.70;;
32321;SDS011;61553;48.994;8.940;2022-09-06T10:48:53;9.27;;;2.75;;
32321;SDS011;61553;48.994;8.940;2022-09-06T10:56:39;13.20;;;2.85;;
32321;SDS011;61553;48.994;8.940;2022-09-06T11:05:04;8.23;;;2.90;;
32321;SDS011;61553;48.994;8.940;2022-09-06T11:07:40;8.85;;;3.20;;
32321;SDS011;61553;48.994;8.940;2022-09-06T11:15:38;7.18;;;3.05;;
32321;SDS011;61553;48.994;8.940;2022-09-06T11:18:14;8.23;;;3.25;;
32321;SDS011;61553;48.994;8.940;2022-09-06T11:29:41;10.02;;;3.03;;
32321;SDS011;61553;48.994;8.940;2022-09-06T11:32:31;8.32;;;3.00;;
32321;SDS011;61553;48.994;8.940;2022-09-06T11:34:58;14.30;;;3.35;;
32321;SDS011;61553;48.994;8.940;2022-09-06T11:37:32;7.55;;;3.03;;
32321;SDS011;61553;48.994;8.940;2022-09-06T11:40:05;8.23;;;2.70;;
32321;SDS011;61553;48.994;8.940;2022-09-06T11:45:12;16.33;;;3.55;;
32321;SDS011;61553;48.994;8.940;2022-09-06T11:47:49;8.65;;;2.40;;
32321;SDS011;61553;48.994;8.940;2022-09-06T11:52:49;6.43;;;2.35;;
32321;SDS011;61553;48.994;8.940;2022-09-06T12:06:19;6.07;;;2.45;;
32321;SDS011;61553;48.994;8.940;2022-09-06T12:08:50;7.03;;;2.63;;
32321;SDS011;61553;48.994;8.940;2022-09-06T12:29:52;9.82;;;2.92;;
32321;SDS011;61553;48.994;8.940;2022-09-06T12:32:36;5.13;;;2.38;;
32321;SDS011;61553;48.994;8.940;2022-09-06T12:35:15;11.98;;;2.60;;
32321;SDS011;61553;48.994;8.940;2022-09-06T12:37:57;9.73;;;3.13;;
32321;SDS011;61553;48.994;8.940;2022-09-06T12:40:25;8.20;;;2.90;;
32321;SDS011;61553;48.994;8.940;2022-09-06T12:42:53;7.93;;;2.58;;
32321;SDS011;61553;48.994;8.940;2022-09-06T12:45:20;8.73;;;2.55;;
32321;SDS011;61553;48.994;8.940;2022-09-06T12:47:47;9.65;;;2.42;;
32321;SDS011;61553;48.994;8.940;2022-09-06T12:52:58;7.57;;;2.30;;
32321;SDS011;61553;48.994;8.940;2022-09-06T12:55:29;8.82;;;2.50;;
32321;SDS011;61553;48.994;8.940;2022-09-06T12:57:57;6.80;;;2.63;;
32321;SDS011;61553;48.994;8.940;2022-09-06T13:00:26;7.43;;;2.40;;
32321;SDS011;61553;48.994;8.940;2022-09-06T13:06:01;4.82;;;2.40;;
32321;SDS011;61553;48.994;8.940;2022-09-06T13:08:51;8.38;;;2.83;;
32321;SDS011;61553;48.994;8.940;2022-09-06T13:11:19;7.07;;;2.30;;
32321;SDS011;61553;48.994;8.940;2022-09-06T13:14:08;9.23;;;2.58;;
32321;SDS011;61553;48.994;8.940;2022-09-06T13:16:48;5.53;;;2.33;;
32321;SDS011;61553;48.994;8.940;2022-09-06T13:19:38;8.05;;;2.70;;
32321;SDS011;61553;48.994;8.940;2022-09-06T13:22:05;8.38;;;2.53;;
32321;SDS011;61553;48.994;8.940;2022-09-06T13:29:58;8.00;;;2.83;;
32321;SDS011;61553;48.994;8.940;2022-09-06T13:32:26;9.95;;;2.90;;
32321;SDS011;61553;48.994;8.940;2022-09-06T13:34:53;10.20;;;2.65;;
32321;SDS011;61553;48.994;8.940;2022-09-06T13:37:25;7.53;;;2.60;;
32321;SDS011;61553;48.994;8.940;2022-09-06T13:39:53;6.75;;;2.75;;
32321;SDS011;61553;48.994;8.940;2022-09-06T13:42:33;8.30;;;2.88;;
32321;SDS011;61553;48.994;8.940;2022-09-06T13:47:55;8.45;;;2.60;;
32321;SDS011;61553;48.994;8.940;2022-09-06T13:50:26;9.90;;;2.85;;
32321;SDS011;61553;48.994;8.940;2022-09-06T13:52:52;8.15;;;2.65;;
32321;SDS011;61553;48.994;8.940;2022-09-06T13:55:18;7.18;;;2.85;;
32321;SDS011;61553;48.994;8.940;2022-09-06T13:57:47;9.20;;;3.17;;
32321;SDS011;61553;48.994;8.940;2022-09-06T14:00:13;7.28;;;3.08;;
32321;SDS011;61553;48.994;8.940;2022-09-06T14:02:39;7.65;;;2.55;;
32321;SDS011;61553;48.994;8.940;2022-09-06T14:05:06;10.75;;;2.72;;
32321;SDS011;61553;48.994;8.940;2022-09-06T14:07:32;8.43;;;3.08;;
32321;SDS011;61553;48.994;8.940;2022-09-06T14:09:57;7.60;;;2.97;;
32321;SDS011;61553;48.994;8.940;2022-09-06T14:12:25;8.13;;;2.70;;
32321;SDS011;61553;48.994;8.940;2022-09-06T14:14:51;8.20;;;2.55;;
32321;SDS011;61553;48.994;8.940;2022-09-06T14:17:17;8.20;;;3.10;;
32321;SDS011;61553;48.994;8.940;2022-09-06T14:19:43;9.70;;;2.85;;
32321;SDS011;61553;48.994;8.940;2022-09-06T14:22:10;6.22;;;2.78;;
32321;SDS011;61553;48.994;8.940;2022-09-06T14:24:35;7.90;;;2.80;;
32321;SDS011;61553;48.994;8.940;2022-09-06T14:27:01;6.03;;;2.25;;
32321;SDS011;61553;48.994;8.940;2022-09-06T14:29:29;7.82;;;2.83;;
32321;SDS011;61553;48.994;8.940;2022-09-06T14:31:55;4.80;;;2.05;;
32321;SDS011;61553;48.994;8.940;2022-09-06T14:34:20;3.05;;;1.70;;
32321;SDS011;61553;48.994;8.940;2022-09-06T14:36:46;4.93;;;1.90;;
32321;SDS011;61553;48.994;8.940;2022-09-06T14:39:12;5.90;;;1.98;;
32321;SDS011;61553;48.994;8.940;2022-09-06T14:41:37;4.57;;;1.60;;
32321;SDS011;61553;48.994;8.940;2022-09-06T14:44:03;5.22;;;1.80;;
32321;SDS011;61553;48.994;8.940;2022-09-06T14:46:29;13.82;;;1.88;;
32321;SDS011;61553;48.994;8.940;2022-09-06T14:49:05;4.47;;;1.70;;
32321;SDS011;61553;48.994;8.940;2022-09-06T14:51:32;6.30;;;1.90;;
32321;SDS011;61553;48.994;8.940;2022-09-06T14:54:11;4.90;;;1.50;;
32321;SDS011;61553;48.994;8.940;2022-09-06T14:56:40;5.05;;;1.60;;
32321;SDS011;61553;48.994;8.940;2022-09-06T14:59:07;4.82;;;1.73;;
32321;SDS011;61553;48.994;8.940;2022-09-06T15:01:34;5.35;;;1.50;;
32321;SDS011;61553;48.994;8.940;2022-09-06T15:04:01;3.92;;;1.85;;
32321;SDS011;61553;48.994;8.940;2022-09-06T15:06:29;4.43;;;1.88;;
32321;SDS011;61553;48.994;8.940;2022-09-06T15:08:56;4.65;;;1.65;;
32321;SDS011;61553;48.994;8.940;2022-09-06T15:11:26;5.82;;;1.80;;
32321;SDS011;61553;48.994;8.940;2022-09-06T15:13:56;6.60;;;2.20;;
32321;SDS011;61553;48.994;8.940;2022-09-06T15:16:22;6.88;;;1.80;;
32321;SDS011;61553;48.994;8.940;2022-09-06T15:18:48;6.13;;;2.20;;
32321;SDS011;61553;48.994;8.940;2022-09-06T15:21:14;5.57;;;1.83;;
32321;SDS011;61553;48.994;8.940;2022-09-06T15:23:41;4.10;;;1.65;;
32321;SDS011;61553;48.994;8.940;2022-09-06T15:26:08;6.15;;;1.95;;
32321;SDS011;61553;48.994;8.940;2022-09-06T15:28:36;5.57;;;1.77;;
32321;SDS011;61553;48.994;8.940;2022-09-06T15:31:03;4.13;;;1.50;;
32321;SDS011;61553;48.994;8.940;2022-09-06T15:33:30;4.35;;;1.60;;
32321;SDS011;61553;48.994;8.940;2022-09-06T15:35:56;3.97;;;1.50;;
32321;SDS011;61553;48.994;8.940;2022-09-06T15:38:22;4.40;;;1.40;;
32321;SDS011;61553;48.994;8.940;2022-09-06T15:40:47;6.03;;;1.50;;
32321;SDS011;61553;48.994;8.940;2022-09-06T15:43:14;4.97;;;1.45;;
32321;SDS011;61553;48.994;8.940;2022-09-06T15:45:46;5.53;;;1.52;;
32321;SDS011;61553;48.994;8.940;2022-09-06T15:48:14;3.60;;;1.35;;
32321;SDS011;61553;48.994;8.940;2022-09-06T15:50:40;4.65;;;1.50;;
32321;SDS011;61553;48.994;8.940;2022-09-06T15:53:07;4.60;;;1.30;;
32321;SDS011;61553;48.994;8.940;2022-09-06T15:55:33;5.00;;;1.60;;
32321;SDS011;61553;48.994;8.940;2022-09-06T15:58:17;3.65;;;1.20;;
32321;SDS011;61553;48.994;8.940;2022-09-06T16:00:42;4.43;;;1.30;;
32321;SDS011;61553;48.994;8.940;2022-09-06T16:03:08;4.95;;;1.65;;
32321;SDS011;61553;48.994;8.940;2022-09-06T16:05:34;4.65;;;1.45;;
32321;SDS011;61553;48.994;8.940;2022-09-06T16:08:00;4.53;;;1.60;;
32321;SDS011;61553;48.994;8.940;2022-09-06T16:10:26;5.18;;;1.50;;
32321;SDS011;61553;48.994;8.940;2022-09-06T16:12:52;4.32;;;1.15;;
32321;SDS011;61553;48.994;8.940;2022-09-06T16:15:18;4.25;;;1.52;;
32321;SDS011;61553;48.994;8.940;2022-09-06T16:17:44;4.65;;;1.48;;
32321;SDS011;61553;48.994;8.940;2022-09-06T16:20:11;7.18;;;1.60;;
32321;SDS011;61553;48.994;8.940;2022-09-06T16:22:37;3.67;;;1.30;;
32321;SDS011;61553;48.994;8.940;2022-09-06T16:25:03;3.47;;;1.23;;
32321;SDS011;61553;48.994;8.940;2022-09-06T16:27:29;3.75;;;1.50;;
32321;SDS011;61553;48.994;8.940;2022-09-06T16:29:55;5.00;;;1.30;;
32321;SDS011;61553;48.994;8.940;2022-09-06T16:32:20;3.42;;;1.20;;
32321;SDS011;61553;48.994;8.940;2022-09-06T16:34:46;4.82;;;1.30;;
32321;SDS011;61553;48.994;8.940;2022-09-06T16:37:12;3.20;;;1.25;;
32321;SDS011;61553;48.994;8.940;2022-09-06T16:39:37;3.83;;;1.35;;
32321;SDS011;61553;48.994;8.940;2022-09-06T16:42:03;10.20;;;1.45;;
32321;SDS011;61553;48.994;8.940;2022-09-06T16:44:29;4.35;;;1.40;;
32321;SDS011;61553;48.994;8.940;2022-09-06T16:46:55;3.72;;;1.17;;
32321;SDS011;61553;48.994;8.940;2022-09-06T16:49:24;3.33;;;1.45;;
32321;SDS011;61553;48.994;8.940;2022-09-06T16:51:50;5.30;;;1.50;;
32321;SDS011;61553;48.994;8.940;2022-09-06T16:54:16;3.53;;;1.63;;
32321;SDS011;61553;48.994;8.940;2022-09-06T16:56:42;5.32;;;1.52;;
32321;SDS011;61553;48.994;8.940;2022-09-06T16:59:09;4.38;;;1.65;;
32321;SDS011;61553;48.994;8.940;2022-09-06T17:01:36;3.58;;;1.33;;
32321;SDS011;61553;48.994;8.940;2022-09-06T17:04:05;5.20;;;1.48;;